createdAt,value
2022-07-28T00:00:10.926Z,16.06
2022-07-28T00:03:06.072Z,16.09
2022-07-28T00:05:35.593Z,16.09
2022-07-28T00:08:10.588Z,16.11
2022-07-28T00:10:45.032Z,16.09
2022-07-28T00:13:13.918Z,16.04
2022-07-28T00:15:47.001Z,16.02
2022-07-28T00:18:16.420Z,15.97
2022-07-28T00:20:45.205Z,15.95
2022-07-28T00:23:14.011Z,15.95
2022-07-28T00:25:43.401Z,15.96
2022-07-28T00:28:14.931Z,15.96
2022-07-28T00:30:45.273Z,15.98
2022-07-28T00:33:16.723Z,15.95
2022-07-28T00:35:48.808Z,15.92
2022-07-28T00:38:18.825Z,15.91
2022-07-28T00:41:06.501Z,15.88
2022-07-28T00:43:35.939Z,15.80
2022-07-28T00:46:07.018Z,15.74
2022-07-28T00:48:40.834Z,15.63
2022-07-28T00:51:15.370Z,15.50
2022-07-28T00:53:46.165Z,15.41
2022-07-28T00:56:16.017Z,15.33
2022-07-28T00:58:46.188Z,15.28
2022-07-28T01:01:20.252Z,15.24
2022-07-28T01:03:56.310Z,15.19
2022-07-28T01:06:46.555Z,15.21
2022-07-28T01:09:36.596Z,15.22
2022-07-28T01:12:42.925Z,15.25
2022-07-28T01:15:43.400Z,15.25
2022-07-28T01:18:27.040Z,15.25
2022-07-28T01:21:04.628Z,15.26
2022-07-28T01:24:17.382Z,15.28
2022-07-28T01:26:58.699Z,15.29
2022-07-28T01:29:39.611Z,15.31
2022-07-28T01:32:50.619Z,15.34
2022-07-28T01:35:26.800Z,15.36
2022-07-28T01:38:02.297Z,15.36
2022-07-28T01:40:35.402Z,15.38
2022-07-28T01:43:13.328Z,15.43
2022-07-28T01:45:46.612Z,15.46
2022-07-28T01:48:19.009Z,15.46
2022-07-28T01:50:55.239Z,15.43
2022-07-28T01:53:27.625Z,15.37
2022-07-28T01:56:07.286Z,15.32
2022-07-28T01:58:42.683Z,15.27
2022-07-28T02:01:15.497Z,15.25
2022-07-28T02:03:48.331Z,15.23
2022-07-28T02:06:20.381Z,15.20
2022-07-28T02:08:51.981Z,15.13
2022-07-28T02:11:42.161Z,15.12
2022-07-28T02:14:18.484Z,15.12
2022-07-28T02:17:06.215Z,15.12
2022-07-28T02:19:39.606Z,15.13
2022-07-28T02:22:10.811Z,15.12
2022-07-28T02:24:44.004Z,15.12
2022-07-28T02:27:28.693Z,15.09
2022-07-28T02:30:32.449Z,15.02
2022-07-28T02:33:29.564Z,14.95
2022-07-28T02:36:25.026Z,14.88
2022-07-28T02:39:00.896Z,14.78
2022-07-28T02:41:38.421Z,14.64
2022-07-28T02:44:13.489Z,14.54
2022-07-28T02:46:49.200Z,14.46
2022-07-28T02:49:24.342Z,14.35
2022-07-28T02:51:55.742Z,14.23
2022-07-28T02:54:27.834Z,14.12
2022-07-28T02:57:02.315Z,14.04
2022-07-28T02:59:32.508Z,13.97
2022-07-28T03:02:02.291Z,13.91
2022-07-28T03:04:53.983Z,13.85
2022-07-28T03:07:23.373Z,13.80
2022-07-28T03:09:51.846Z,13.81
2022-07-28T03:12:21.995Z,13.85
2022-07-28T03:15:02.318Z,13.91
2022-07-28T03:17:34.705Z,13.99
2022-07-28T03:20:03.821Z,14.01
2022-07-28T03:22:32.341Z,14.04
2022-07-28T03:25:19.930Z,14.11
2022-07-28T03:27:50.633Z,14.15
2022-07-28T03:30:24.886Z,14.17
2022-07-28T03:33:01.791Z,14.20
2022-07-28T03:35:40.366Z,14.27
2022-07-28T03:38:17.799Z,14.34
2022-07-28T03:40:49.841Z,14.44
2022-07-28T03:43:22.002Z,14.52
2022-07-28T03:45:51.473Z,14.59
2022-07-28T03:48:23.738Z,14.64
2022-07-28T03:50:54.612Z,14.71
2022-07-28T03:53:27.434Z,14.76
2022-07-28T03:55:56.834Z,14.78
2022-07-28T03:58:28.687Z,14.81
2022-07-28T04:00:58.803Z,14.84
2022-07-28T04:03:42.338Z,14.88
2022-07-28T04:06:14.103Z,14.92
2022-07-28T04:08:43.940Z,14.97
2022-07-28T04:11:12.937Z,15.00
2022-07-28T04:13:42.090Z,15.05
2022-07-28T04:16:10.884Z,15.10
2022-07-28T04:18:39.585Z,15.18
2022-07-28T04:21:08.851Z,15.26
2022-07-28T04:23:37.734Z,15.32
2022-07-28T04:26:06.314Z,15.39
2022-07-28T04:28:36.139Z,15.39
2022-07-28T04:31:05.927Z,15.35
2022-07-28T04:33:34.765Z,15.47
2022-07-28T04:36:04.024Z,16.51
2022-07-28T04:38:33.214Z,17.99
2022-07-28T04:41:01.693Z,19.27
2022-07-28T04:43:30.842Z,20.28
2022-07-28T04:46:00.686Z,21.16
2022-07-28T04:48:30.473Z,21.99
2022-07-28T04:50:59.045Z,22.65
2022-07-28T04:53:29.879Z,23.35
2022-07-28T04:55:59.213Z,23.92
2022-07-28T04:58:30.859Z,24.37
2022-07-28T05:01:00.428Z,24.74
2022-07-28T05:03:34.111Z,24.90
2022-07-28T05:06:06.447Z,24.78
2022-07-28T05:08:35.513Z,24.69
2022-07-28T05:11:04.565Z,24.77
2022-07-28T05:13:34.928Z,25.01
2022-07-28T05:16:03.905Z,25.25
2022-07-28T05:18:32.697Z,25.45
2022-07-28T05:21:02.137Z,25.81
2022-07-28T05:23:30.834Z,26.08
2022-07-28T05:25:59.395Z,26.42
2022-07-28T05:28:28.409Z,26.82
2022-07-28T05:30:57.170Z,27.23
2022-07-28T05:33:32.006Z,27.68
2022-07-28T05:36:10.603Z,28.05
2022-07-28T05:38:39.664Z,28.48
2022-07-28T05:41:09.453Z,28.73
2022-07-28T05:43:38.844Z,29.02
2022-07-28T05:46:07.687Z,29.31
2022-07-28T05:48:37.188Z,29.66
2022-07-28T05:51:07.681Z,29.92
2022-07-28T05:53:36.216Z,30.07
2022-07-28T05:56:05.591Z,30.16
2022-07-28T05:58:34.970Z,30.34
2022-07-28T06:01:04.882Z,30.64
2022-07-28T06:03:41.421Z,30.86
2022-07-28T06:06:14.973Z,30.81
2022-07-28T06:08:47.564Z,29.98
2022-07-28T06:11:22.317Z,29.56
2022-07-28T06:13:53.484Z,30.04
2022-07-28T06:16:23.446Z,30.69
2022-07-28T06:18:52.541Z,31.24
2022-07-28T06:21:26.459Z,31.83
2022-07-28T06:23:54.979Z,32.18
2022-07-28T06:26:24.010Z,32.42
2022-07-28T06:28:53.585Z,32.70
2022-07-28T06:31:22.779Z,32.81
2022-07-28T06:33:51.771Z,32.84
2022-07-28T06:36:20.591Z,32.96
2022-07-28T06:38:52.655Z,33.28
2022-07-28T06:41:21.456Z,33.58
2022-07-28T06:43:52.934Z,33.57
2022-07-28T06:46:22.496Z,33.70
2022-07-28T06:48:51.776Z,33.71
2022-07-28T06:51:20.836Z,33.63
2022-07-28T06:53:49.788Z,33.57
2022-07-28T06:56:21.411Z,33.76
2022-07-28T06:58:50.777Z,33.99
2022-07-28T07:01:19.975Z,33.68
2022-07-28T07:03:51.630Z,33.54
2022-07-28T07:06:22.180Z,33.45
2022-07-28T07:08:50.818Z,33.68
2022-07-28T07:11:19.281Z,33.91
2022-07-28T07:13:48.052Z,33.92
2022-07-28T07:16:17.638Z,34.11
2022-07-28T07:18:48.842Z,34.31
2022-07-28T07:21:17.678Z,34.28
2022-07-28T07:23:46.601Z,34.02
2022-07-28T07:26:18.964Z,33.85
2022-07-28T07:28:50.803Z,33.72
2022-07-28T07:31:23.145Z,33.50
2022-07-28T07:33:54.992Z,33.60
2022-07-28T07:36:23.957Z,33.70
2022-07-28T07:38:53.521Z,33.54
2022-07-28T07:41:22.611Z,33.61
2022-07-28T07:43:51.234Z,33.67
2022-07-28T07:46:20.092Z,33.71
2022-07-28T07:48:49.275Z,33.74
2022-07-28T07:51:18.398Z,33.72
2022-07-28T07:53:47.278Z,33.36
2022-07-28T07:56:18.820Z,32.93
2022-07-28T07:59:13.702Z,32.90
2022-07-28T08:01:55.131Z,33.14
2022-07-28T08:04:25.462Z,33.34
2022-07-28T08:06:54.293Z,33.00
2022-07-28T08:09:23.786Z,32.89
2022-07-28T08:11:52.578Z,32.98
2022-07-28T08:14:21.308Z,33.07
2022-07-28T08:16:54.046Z,32.86
2022-07-28T08:19:25.812Z,32.26
2022-07-28T08:21:57.347Z,31.80
2022-07-28T08:24:32.435Z,31.15
2022-07-28T08:27:04.518Z,30.52
2022-07-28T08:29:33.960Z,30.73
2022-07-28T08:32:05.275Z,30.73
2022-07-28T08:34:35.404Z,30.90
2022-07-28T08:37:06.284Z,31.07
2022-07-28T08:39:36.612Z,30.58
2022-07-28T08:42:15.665Z,30.21
2022-07-28T08:45:02.934Z,30.26
2022-07-28T08:47:46.011Z,30.22
2022-07-28T08:50:25.087Z,30.04
2022-07-28T08:52:57.912Z,29.77
2022-07-28T08:55:32.078Z,29.42
2022-07-28T08:58:02.198Z,29.13
2022-07-28T09:00:32.479Z,29.02
2022-07-28T09:03:03.666Z,28.92
2022-07-28T09:05:33.240Z,28.82
2022-07-28T09:08:03.310Z,28.83
2022-07-28T09:10:32.014Z,28.79
2022-07-28T09:13:00.849Z,28.65
2022-07-28T09:15:30.023Z,28.58
2022-07-28T09:17:58.530Z,28.45
2022-07-28T09:20:29.783Z,28.21
2022-07-28T09:22:59.934Z,28.09
2022-07-28T09:25:30.193Z,27.93
2022-07-28T09:28:12.299Z,28.06
2022-07-28T09:30:53.823Z,28.58
2022-07-28T09:33:41.253Z,28.86
2022-07-28T09:36:16.803Z,28.74
2022-07-28T09:38:49.605Z,28.65
2022-07-28T09:41:22.052Z,29.07
2022-07-28T09:43:55.298Z,29.34
2022-07-28T09:46:29.713Z,29.52
2022-07-28T09:49:01.049Z,29.60
2022-07-28T09:51:33.813Z,29.55
2022-07-28T09:54:17.249Z,29.15
2022-07-28T09:56:46.806Z,28.59
2022-07-28T09:59:19.391Z,28.24
2022-07-28T10:02:23.427Z,27.91
2022-07-28T10:04:54.729Z,27.98
2022-07-28T10:07:23.745Z,27.95
2022-07-28T10:09:58.478Z,27.82
2022-07-28T10:12:31.163Z,27.90
2022-07-28T10:15:35.498Z,28.00
2022-07-28T10:18:15.958Z,27.91
2022-07-28T10:20:45.426Z,27.86
2022-07-28T10:23:15.591Z,27.85
2022-07-28T10:25:45.877Z,28.01
2022-07-28T10:28:22.363Z,28.09
2022-07-28T10:30:58.685Z,27.96
2022-07-28T10:33:32.228Z,27.92
2022-07-28T10:36:03.066Z,28.06
2022-07-28T10:38:36.078Z,27.71
2022-07-28T10:41:09.020Z,27.42
2022-07-28T10:43:42.664Z,27.42
2022-07-28T10:46:16.405Z,27.46
2022-07-28T10:48:46.750Z,27.48
2022-07-28T10:51:16.622Z,27.50
2022-07-28T10:53:54.454Z,27.37
2022-07-28T10:56:37.524Z,27.40
2022-07-28T10:59:51.175Z,27.33
2022-07-28T11:02:48.891Z,27.17
2022-07-28T11:05:27.142Z,27.00
2022-07-28T11:07:57.557Z,26.85
2022-07-28T11:10:28.070Z,26.84
2022-07-28T11:12:59.437Z,26.92
2022-07-28T11:15:36.287Z,26.82
2022-07-28T11:18:10.127Z,26.50
2022-07-28T11:20:56.426Z,26.35
2022-07-28T11:23:46.877Z,26.25
2022-07-28T11:26:25.205Z,26.29
2022-07-28T11:29:01.199Z,26.09
2022-07-28T11:31:45.469Z,25.87
2022-07-28T11:34:20.199Z,25.89
2022-07-28T11:37:15.107Z,25.76
2022-07-28T11:39:45.397Z,25.59
2022-07-28T11:42:28.278Z,25.58
2022-07-28T11:45:17.801Z,25.54
2022-07-28T11:47:46.494Z,25.51
2022-07-28T11:50:17.539Z,25.52
2022-07-28T11:52:57.627Z,25.50
2022-07-28T11:55:55.723Z,25.36
2022-07-28T11:58:25.594Z,25.16
2022-07-28T12:01:18.301Z,25.12
2022-07-28T12:03:59.051Z,25.16
2022-07-28T12:06:35.618Z,25.20
2022-07-28T12:09:20.574Z,25.22
2022-07-28T12:11:56.149Z,25.24
2022-07-28T12:14:27.111Z,25.29
2022-07-28T12:16:57.325Z,25.38
2022-07-28T12:19:33.226Z,25.44
2022-07-28T12:22:02.368Z,25.14
2022-07-28T12:24:45.830Z,24.99
2022-07-28T12:27:16.902Z,25.08
2022-07-28T12:29:59.717Z,25.04
2022-07-28T12:32:35.598Z,25.01
2022-07-28T12:35:05.048Z,25.05
2022-07-28T12:37:34.351Z,25.11
2022-07-28T12:40:05.734Z,25.12
2022-07-28T12:42:34.348Z,25.15
2022-07-28T12:45:10.507Z,25.16
2022-07-28T12:47:39.585Z,25.27
2022-07-28T12:50:13.527Z,25.30
2022-07-28T12:52:44.246Z,25.26
2022-07-28T12:55:24.530Z,25.31
2022-07-28T12:57:53.221Z,25.29
2022-07-28T13:00:28.364Z,25.26
2022-07-28T13:03:01.130Z,25.30
2022-07-28T13:06:03.991Z,25.24
2022-07-28T13:08:47.303Z,25.18
2022-07-28T13:11:42.780Z,25.24
2022-07-28T13:14:06.623Z,25.22
2022-07-28T13:16:36.937Z,25.17
2022-07-28T13:19:06.306Z,25.24
2022-07-28T13:21:56.128Z,25.28
2022-07-28T13:24:30.020Z,25.29
2022-07-28T13:26:59.849Z,25.25
2022-07-28T13:29:29.158Z,25.13
2022-07-28T13:31:58.413Z,25.08
2022-07-28T13:34:27.670Z,25.04
2022-07-28T13:36:57.875Z,25.05
2022-07-28T13:39:26.644Z,25.07
2022-07-28T13:41:58.280Z,25.08
2022-07-28T13:44:29.129Z,25.14
2022-07-28T13:46:59.977Z,25.24
2022-07-28T13:49:31.949Z,25.26
2022-07-28T13:52:05.148Z,25.31
2022-07-28T13:54:36.674Z,25.30
2022-07-28T13:57:16.302Z,25.35
2022-07-28T13:59:48.027Z,25.36
2022-07-28T14:02:20.732Z,25.34
2022-07-28T14:04:55.610Z,25.34
2022-07-28T14:07:26.712Z,25.32
2022-07-28T14:09:58.686Z,25.28
2022-07-28T14:12:28.788Z,25.22
2022-07-28T14:14:57.453Z,25.15
2022-07-28T14:17:46.665Z,25.18
2022-07-28T14:20:17.536Z,25.26
2022-07-28T14:22:46.937Z,25.38
2022-07-28T14:25:21.189Z,25.45
2022-07-28T14:27:53.640Z,25.48
2022-07-28T14:30:32.668Z,25.48
2022-07-28T14:33:03.204Z,25.51
2022-07-28T14:35:31.866Z,25.51
2022-07-28T14:38:51.214Z,25.43
2022-07-28T14:40:49.873Z,25.26
2022-07-28T14:43:18.888Z,25.28
2022-07-28T14:45:51.457Z,25.34
2022-07-28T14:48:37.004Z,25.38
2022-07-28T14:51:06.435Z,25.39
2022-07-28T14:53:35.710Z,25.35
2022-07-28T14:56:16.229Z,25.27
2022-07-28T14:58:44.849Z,25.25
2022-07-28T15:01:14.752Z,25.30
2022-07-28T15:03:43.715Z,25.31
2022-07-28T15:06:12.360Z,25.31
2022-07-28T15:08:41.473Z,25.24
2022-07-28T15:11:10.197Z,25.20
2022-07-28T15:13:41.187Z,25.26
2022-07-28T15:16:10.003Z,25.32
2022-07-28T15:18:38.727Z,25.30
2022-07-28T15:21:08.953Z,25.29
2022-07-28T15:23:38.088Z,25.28
2022-07-28T15:26:07.054Z,25.26
2022-07-28T15:28:35.626Z,25.22
2022-07-28T15:31:04.703Z,25.23
2022-07-28T15:33:47.936Z,25.22
2022-07-28T15:36:19.956Z,25.26
2022-07-28T15:38:48.918Z,25.27
2022-07-28T15:41:20.368Z,25.31
2022-07-28T15:43:49.293Z,25.35
2022-07-28T15:46:17.879Z,25.37
2022-07-28T15:48:48.012Z,25.38
2022-07-28T15:51:29.320Z,25.36
2022-07-28T15:54:01.073Z,25.32
2022-07-28T15:56:32.428Z,25.24
2022-07-28T15:59:02.987Z,25.23
2022-07-28T16:01:32.185Z,25.26
2022-07-28T16:04:02.282Z,25.19
2022-07-28T16:06:50.782Z,25.19
2022-07-28T16:09:20.908Z,25.25
2022-07-28T16:11:49.531Z,25.26
2022-07-28T16:14:19.911Z,25.18
2022-07-28T16:16:48.769Z,25.14
2022-07-28T16:19:46.138Z,25.16
2022-07-28T16:22:06.754Z,25.15
2022-07-28T16:24:35.927Z,25.13
2022-07-28T16:27:05.235Z,25.12
2022-07-28T16:29:34.476Z,25.13
2022-07-28T16:32:03.370Z,25.13
2022-07-28T16:34:32.356Z,25.09
2022-07-28T16:37:01.334Z,25.07
2022-07-28T16:39:35.111Z,25.02
2022-07-28T16:42:04.188Z,24.99
2022-07-28T16:44:34.074Z,24.96
2022-07-28T16:47:02.669Z,24.97
2022-07-28T16:49:32.069Z,24.94
2022-07-28T16:52:00.899Z,24.93
2022-07-28T16:54:30.411Z,24.93
2022-07-28T16:57:02.349Z,24.91
2022-07-28T16:59:37.081Z,24.88
2022-07-28T17:02:35.449Z,24.87
2022-07-28T17:05:22.653Z,24.85
2022-07-28T17:08:13.851Z,24.83
2022-07-28T17:11:05.708Z,24.83
2022-07-28T17:14:06.203Z,24.82
2022-07-28T17:16:55.197Z,24.81
2022-07-28T17:19:49.610Z,24.80
2022-07-28T17:22:44.839Z,24.78
2022-07-28T17:28:38.944Z,24.64
2022-07-28T17:31:28.893Z,24.60
2022-07-28T17:34:20.710Z,24.57
2022-07-28T17:37:03.206Z,24.53
2022-07-28T17:39:41.951Z,24.47
2022-07-28T17:42:25.297Z,24.40
2022-07-28T17:44:56.501Z,24.34
2022-07-28T17:47:35.804Z,24.28
2022-07-28T17:50:07.567Z,24.24
2022-07-28T17:52:37.737Z,24.16
2022-07-28T17:55:25.367Z,24.08
2022-07-28T17:57:57.171Z,24.00
2022-07-28T18:00:25.850Z,23.92
2022-07-28T18:02:54.484Z,23.85
2022-07-28T18:05:23.304Z,23.81
2022-07-28T18:07:56.055Z,23.75
2022-07-28T18:10:27.717Z,23.70
2022-07-28T18:12:56.624Z,23.66
2022-07-28T18:15:25.210Z,23.59
2022-07-28T18:17:56.059Z,23.54
2022-07-28T18:20:25.421Z,23.49
2022-07-28T18:22:54.396Z,23.41
2022-07-28T18:25:23.051Z,23.33
2022-07-28T18:27:53.298Z,23.26
2022-07-28T18:30:23.437Z,23.19
2022-07-28T18:32:53.205Z,23.13
2022-07-28T18:35:23.199Z,23.05
2022-07-28T18:37:52.217Z,23.01
2022-07-28T18:40:22.275Z,22.96
2022-07-28T18:42:52.133Z,22.90
2022-07-28T18:45:21.039Z,22.82
2022-07-28T18:47:49.844Z,22.76
2022-07-28T18:50:30.476Z,22.71
2022-07-28T18:53:01.067Z,22.67
2022-07-28T18:55:30.120Z,22.65
2022-07-28T18:57:59.036Z,22.61
2022-07-28T19:00:28.607Z,22.56
2022-07-28T19:02:57.545Z,22.50
2022-07-28T19:05:26.141Z,22.46
2022-07-28T19:07:55.065Z,22.41
2022-07-28T19:10:25.924Z,22.36
2022-07-28T19:12:55.726Z,22.32
2022-07-28T19:15:24.771Z,22.26
2022-07-28T19:18:08.902Z,22.23
2022-07-28T19:20:41.255Z,22.18
2022-07-28T19:23:10.383Z,22.13
2022-07-28T19:25:39.721Z,22.08
2022-07-28T19:28:08.500Z,22.06
2022-07-28T19:30:38.560Z,22.03
2022-07-28T19:33:07.304Z,22.00
2022-07-28T19:35:36.143Z,21.98
2022-07-28T19:38:05.079Z,21.93
2022-07-28T19:40:33.951Z,21.88
2022-07-28T19:43:02.905Z,21.83
2022-07-28T19:45:31.883Z,21.78
2022-07-28T19:48:01.415Z,21.74
2022-07-28T19:50:31.349Z,21.68
2022-07-28T19:53:00.221Z,21.63
2022-07-28T19:55:32.751Z,21.57
2022-07-28T19:58:01.921Z,21.53
2022-07-28T20:00:30.601Z,21.50
2022-07-28T20:03:00.350Z,21.44
2022-07-28T20:05:29.943Z,21.38
2022-07-28T20:07:58.460Z,21.32
2022-07-28T20:10:27.440Z,21.27
2022-07-28T20:12:56.415Z,21.20
2022-07-28T20:15:26.376Z,21.14
2022-07-28T20:17:56.040Z,21.11
2022-07-28T20:20:25.138Z,21.08
2022-07-28T20:22:53.922Z,21.02
2022-07-28T20:25:23.201Z,20.97
2022-07-28T20:27:52.456Z,20.92
2022-07-28T20:30:21.334Z,20.85
2022-07-28T20:32:50.273Z,20.80
2022-07-28T20:35:19.504Z,20.83
2022-07-28T20:37:49.299Z,20.88
2022-07-28T20:40:18.577Z,20.89
2022-07-28T20:42:52.857Z,20.90
2022-07-28T20:45:22.385Z,20.88
2022-07-28T20:47:51.451Z,20.85
2022-07-28T20:50:21.227Z,20.83
2022-07-28T20:52:50.019Z,20.85
2022-07-28T20:55:19.843Z,20.85
2022-07-28T20:57:53.095Z,20.79
2022-07-28T21:00:24.879Z,20.71
2022-07-28T21:02:53.450Z,20.62
2022-07-28T21:05:26.694Z,20.58
2022-07-28T21:08:09.480Z,20.54
2022-07-28T21:10:46.152Z,20.52
2022-07-28T21:13:15.767Z,20.49
2022-07-28T21:15:44.673Z,20.43
2022-07-28T21:18:13.531Z,20.35
2022-07-28T21:20:43.685Z,20.33
2022-07-28T21:23:12.834Z,20.32
2022-07-28T21:25:41.379Z,20.31
2022-07-28T21:28:33.590Z,20.31
2022-07-28T21:31:02.883Z,20.33
2022-07-28T21:33:32.138Z,20.33
2022-07-28T21:36:00.947Z,20.34
2022-07-28T21:38:29.436Z,20.31
2022-07-28T21:40:59.074Z,20.29
2022-07-28T21:43:28.164Z,20.24
2022-07-28T21:45:57.785Z,20.13
2022-07-28T21:48:26.957Z,20.02
2022-07-28T21:50:55.885Z,19.93
2022-07-28T21:53:25.059Z,19.91
2022-07-28T21:55:53.920Z,19.96
2022-07-28T21:58:23.551Z,19.99
2022-07-28T22:00:52.509Z,20.03
2022-07-28T22:03:21.676Z,20.01
2022-07-28T22:05:50.263Z,19.97
2022-07-28T22:08:18.828Z,19.87
2022-07-28T22:10:47.397Z,19.80
2022-07-28T22:45:07.118Z,18.87
2022-07-28T22:47:36.206Z,18.85
2022-07-28T22:50:06.739Z,18.84
2022-07-28T22:52:36.576Z,18.82
2022-07-28T22:55:12.970Z,18.81
2022-07-28T22:57:46.356Z,18.78
2022-07-28T23:00:16.029Z,18.76
2022-07-28T23:02:47.587Z,18.75
2022-07-28T23:05:17.576Z,18.74
2022-07-28T23:07:53.062Z,18.74
2022-07-28T23:10:26.644Z,18.70
2022-07-28T23:12:58.727Z,18.63
2022-07-28T23:15:40.492Z,18.60
2022-07-28T23:18:11.238Z,18.56
2022-07-28T23:20:40.736Z,18.47
2022-07-28T23:23:10.141Z,18.44
2022-07-28T23:25:41.718Z,18.45
2022-07-28T23:28:11.909Z,18.49
2022-07-28T23:30:41.113Z,18.51
2022-07-28T23:33:53.970Z,18.53
2022-07-28T23:36:00.016Z,18.55
2022-07-28T23:38:28.790Z,18.57
2022-07-28T23:40:57.980Z,18.59
2022-07-28T23:43:31.110Z,18.56
2022-07-28T23:46:00.718Z,18.48
2022-07-28T23:48:30.090Z,18.41
2022-07-28T23:50:59.685Z,18.39
2022-07-28T23:53:28.793Z,18.39
2022-07-28T23:55:58.022Z,18.39
2022-07-28T23:58:26.807Z,18.36
